Time;durP1;ratioP1;P1;durP2;ratioP2;P2;SDS_P1;SDS_P2;PMS_P1;PMS_P2;Temp;Humidity;BMP_temperature;BMP_pressure;BME280_temperature;BME280_humidity;BME280_pressure;Samples;Min_cycle;Max_cycle;Signal;HPM_P1;HPM_P2
2021/10/09 00:00:14;;;;;;;19.80;13.55;;;9.10;99.90;;;;;;6246218;28;20029;-83
2021/10/09 00:03:15;;;;;;;17.02;12.27;;;;;;;;;;6247713;28;20028;-82
2021/10/09 00:06:16;;;;;;;17.38;12.82;;;;;;;;;;6270017;28;20028;-82
2021/10/09 00:09:17;;;;;;;20.40;13.65;;;;;;;;;;6236391;28;20036;-82
2021/10/09 00:12:18;;;;;;;17.70;12.90;;;9.10;99.90;;;;;;6236757;28;20025;-82
2021/10/09 00:15:19;;;;;;;17.95;13.13;;;8.80;99.90;;;;;;6222115;28;20211;-82
2021/10/09 00:18:19;;;;;;;17.35;12.55;;;8.80;99.90;;;;;;6241005;28;20029;-82
2021/10/09 00:21:20;;;;;;;20.33;12.68;;;8.60;99.90;;;;;;6242715;28;20084;-81
2021/10/09 00:24:20;;;;;;;17.70;14.10;;;8.70;99.90;;;;;;6236234;28;20025;-82
2021/10/09 00:27:21;;;;;;;16.90;11.88;;;;;;;;;;6235911;28;20502;-82
2021/10/09 00:30:22;;;;;;;16.75;12.73;;;;;;;;;;6235849;28;20028;-84
2021/10/09 00:33:23;;;;;;;16.70;13.30;;;;;;;;;;6241784;28;20013;-82
2021/10/09 00:36:25;;;;;;;16.52;11.77;;;8.50;99.90;;;;;;6239683;28;20029;-82
2021/10/09 00:39:25;;;;;;;17.85;12.55;;;9.00;99.90;;;;;;6235786;28;20021;-83
2021/10/09 00:42:26;;;;;;;17.45;12.95;;;;;;;;;;6263620;28;20051;-82
2021/10/09 00:45:27;;;;;;;18.10;12.98;;;;;;;;;;6269783;28;20044;-83
2021/10/09 00:48:28;;;;;;;16.42;12.85;;;8.40;99.90;;;;;;6235639;28;20021;-82
2021/10/09 00:51:28;;;;;;;16.38;12.20;;;8.40;99.90;;;;;;6243358;28;20040;-82
2021/10/09 00:54:29;;;;;;;18.40;12.73;;;8.40;99.90;;;;;;6242636;28;20021;-81
2021/10/09 00:57:30;;;;;;;16.77;12.43;;;7.80;99.90;;;;;;6245230;28;20037;-82
2021/10/09 01:00:31;;;;;;;17.08;12.60;;;8.10;99.90;;;;;;6231396;28;20489;-82
2021/10/09 01:03:32;;;;;;;16.23;13.02;;;8.10;99.90;;;;;;6250816;28;20031;-82
2021/10/09 01:06:32;;;;;;;17.45;12.30;;;8.00;99.90;;;;;;6246032;28;20033;-82
2021/10/09 01:09:33;;;;;;;17.45;13.43;;;8.00;99.90;;;;;;6240495;28;20074;-83
2021/10/09 01:12:34;;;;;;;14.82;12.10;;;8.00;99.90;;;;;;6237449;28;20025;-82
2021/10/09 01:15:34;;;;;;;16.40;11.68;;;8.40;99.90;;;;;;6218607;28;20044;-84
2021/10/09 01:18:35;;;;;;;16.45;12.73;;;7.90;99.90;;;;;;6258607;28;20025;-82
2021/10/09 01:21:39;;;;;;;17.58;11.85;;;7.80;99.90;;;;;;6260797;28;20056;-82
2021/10/09 01:24:41;;;;;;;15.85;11.95;;;8.30;99.90;;;;;;6235164;28;20078;-82
2021/10/09 01:27:41;;;;;;;16.88;12.13;;;7.60;99.90;;;;;;6235208;28;20518;-82
2021/10/09 01:30:42;;;;;;;15.90;12.15;;;7.60;99.90;;;;;;6235286;28;20021;-82
2021/10/09 01:33:43;;;;;;;17.58;12.63;;;7.60;99.90;;;;;;6235247;28;20029;-81
2021/10/09 01:36:43;;;;;;;15.98;11.90;;;7.40;99.90;;;;;;6227000;28;20363;-81
2021/10/09 01:39:47;;;;;;;16.88;11.90;;;7.70;99.90;;;;;;6220151;28;20033;-81
2021/10/09 01:42:48;;;;;;;18.60;12.45;;;7.30;99.90;;;;;;6218406;28;20103;-81
2021/10/09 01:45:49;;;;;;;18.30;13.35;;;7.70;99.90;;;;;;6234866;28;20570;-81
2021/10/09 01:48:49;;;;;;;13.10;10.48;;;7.60;99.90;;;;;;6234616;28;20025;-82
2021/10/09 01:51:50;;;;;;;17.80;12.35;;;7.20;99.90;;;;;;6248315;28;20497;-81
2021/10/09 01:54:50;;;;;;;13.75;10.98;;;7.20;99.90;;;;;;6257784;28;20025;-82
2021/10/09 01:57:51;;;;;;;19.75;12.68;;;7.10;99.90;;;;;;6241107;28;20029;-81
2021/10/09 02:00:51;;;;;;;15.77;11.88;;;8.60;99.90;;;;;;6273824;28;20038;-81
2021/10/09 02:03:52;;;;;;;16.92;12.27;;;6.90;99.90;;;;;;6274753;28;20028;-82
2021/10/09 02:06:53;;;;;;;14.32;11.55;;;8.20;99.90;;;;;;6274214;28;20584;-82
2021/10/09 02:09:53;;;;;;;14.93;11.27;;;6.90;99.90;;;;;;6274474;28;20028;-83
2021/10/09 02:12:54;;;;;;;15.25;10.98;;;6.80;99.90;;;;;;6252460;28;20095;-82
2021/10/09 02:26:04;;;;;;;14.63;12.13;;;;;;;;;;6276563;28;20040;-82
2021/10/09 02:29:04;;;;;;;15.85;11.55;;;6.50;99.90;;;;;;6257452;28;20025;-82
2021/10/09 02:32:05;;;;;;;17.33;12.77;;;6.50;99.90;;;;;;6241000;28;20056;-82
2021/10/09 02:35:06;;;;;;;16.05;12.52;;;6.50;99.90;;;;;;6260452;28;20036;-82
2021/10/09 02:38:07;;;;;;;18.33;12.60;;;6.40;99.90;;;;;;6234267;28;20108;-82
2021/10/09 02:41:08;;;;;;;17.48;13.30;;;;;;;;;;6234979;28;20059;-82
2021/10/09 02:44:09;;;;;;;16.90;12.43;;;;;;;;;;6258321;28;20410;-81
2021/10/09 02:47:10;;;;;;;16.58;11.80;;;;;;;;;;6267500;28;20047;-82
2021/10/09 02:50:14;;;;;;;19.02;11.55;;;;;;;;;;6233940;28;20021;-81
2021/10/09 02:53:15;;;;;;;16.98;12.07;;;;;;;;;;6267923;28;20056;-82
2021/10/09 02:56:16;;;;;;;15.43;11.32;;;;;;;;;;6233897;28;20348;-81
2021/10/09 02:59:17;;;;;;;16.02;11.77;;;;;;;;;;6249970;28;20016;-81
2021/10/09 03:02:18;;;;;;;16.65;11.93;;;;;;;;;;6291819;28;20025;-82
2021/10/09 03:05:19;;;;;;;15.48;11.80;;;6.10;99.90;;;;;;6272954;28;20109;-81
2021/10/09 03:08:20;;;;;;;18.65;11.93;;;;;;;;;;6257276;28;20028;-81
2021/10/09 03:11:21;;;;;;;15.27;12.35;;;;;;;;;;6256778;28;20481;-81
2021/10/09 03:14:24;;;;;;;20.77;13.40;;;;;;;;;;6271274;28;20043;-82
2021/10/09 03:17:25;;;;;;;20.38;12.52;;;6.10;99.90;;;;;;6253360;28;20021;-83
2021/10/09 03:20:26;;;;;;;19.45;13.32;;;;;;;;;;6237844;28;20504;-82
2021/10/09 03:23:27;;;;;;;18.00;12.48;;;;;;;;;;6273695;28;20055;-81
2021/10/09 03:26:28;;;;;;;18.20;11.90;;;;;;;;;;6272759;28;20032;-82
2021/10/09 03:29:28;;;;;;;16.85;12.70;;;5.80;99.90;;;;;;6256501;28;20102;-83
2021/10/09 03:32:29;;;;;;;16.50;13.00;;;;;;;;;;6256676;28;20422;-81
2021/10/09 03:35:30;;;;;;;17.20;11.35;;;5.70;99.90;;;;;;6278357;28;20037;-82
2021/10/09 03:38:31;;;;;;;19.55;13.50;;;;;;;;;;6260790;28;20374;-81
2021/10/09 03:41:32;;;;;;;20.35;12.88;;;5.90;99.90;;;;;;6275793;28;20027;-81
2021/10/09 03:44:38;;;;;;;21.98;13.52;;;;;;;;;;6244472;28;20470;-82
2021/10/09 03:53:41;;;;;;;17.33;11.88;;;;;;;;;;6271426;28;20525;-83
2021/10/09 03:56:41;;;;;;;16.52;11.35;;;5.90;99.90;;;;;;6253783;28;20382;-81
2021/10/09 03:59:42;;;;;;;14.15;10.63;;;7.30;99.90;;;;;;6253688;28;20028;-82
2021/10/09 04:02:42;;;;;;;15.82;11.55;;;6.40;99.90;;;;;;6236774;28;20056;-82
2021/10/09 04:05:43;;;;;;;15.57;12.32;;;5.70;99.90;;;;;;6253337;28;20029;-81
2021/10/09 04:08:43;;;;;;;18.23;12.10;;;6.20;99.90;;;;;;6258521;28;20123;-81
2021/10/09 04:11:44;;;;;;;17.67;13.00;;;5.80;99.90;;;;;;6276664;28;20087;-81
2021/10/09 04:14:45;;;;;;;15.27;11.75;;;5.80;99.90;;;;;;6259831;28;20538;-81
2021/10/09 04:17:45;;;;;;;19.52;12.43;;;7.50;99.90;;;;;;6258820;28;20020;-81
2021/10/09 04:20:46;;;;;;;24.27;15.88;;;6.50;99.90;;;;;;6276306;28;20036;-82
2021/10/09 04:23:46;;;;;;;18.38;12.68;;;6.50;99.90;;;;;;6260391;28;20078;-81
2021/10/09 04:26:47;;;;;;;20.10;15.48;;;6.80;99.90;;;;;;6241792;28;20036;-82
2021/10/09 04:29:48;;;;;;;17.05;13.02;;;5.70;99.90;;;;;;6220338;28;20141;-81
2021/10/09 04:32:48;;;;;;;22.58;12.98;;;8.40;99.90;;;;;;6251674;28;20047;-80
2021/10/09 04:35:49;;;;;;;45.13;34.65;;;;;;;;;;6266816;28;20064;-82
2021/10/09 04:38:50;;;;;;;14.52;11.73;;;5.80;99.90;;;;;;6259732;28;20024;-80
2021/10/09 04:41:51;;;;;;;18.73;12.27;;;7.30;99.90;;;;;;6254036;28;20053;-81
2021/10/09 04:44:52;;;;;;;17.42;14.07;;;6.40;99.90;;;;;;6251368;28;20025;-81
2021/10/09 04:47:52;;;;;;;14.38;10.55;;;6.00;99.90;;;;;;6270462;28;20041;-81
2021/10/09 04:50:53;;;;;;;15.68;10.95;;;5.80;99.90;;;;;;6252483;28;20112;-82
2021/10/09 04:53:53;;;;;;;14.18;10.40;;;5.80;99.90;;;;;;6241449;28;20021;-81
2021/10/09 04:56:54;;;;;;;14.82;10.73;;;5.80;99.90;;;;;;6253296;28;20024;-81
2021/10/09 04:59:54;;;;;;;15.00;10.73;;;5.70;99.90;;;;;;6251866;28;20032;-82
2021/10/09 05:02:55;;;;;;;17.98;12.02;;;;;;;;;;6252504;28;20033;-82
2021/10/09 05:05:56;;;;;;;16.02;11.40;;;;;;;;;;6251905;28;20050;-81
2021/10/09 05:08:57;;;;;;;15.45;11.05;;;;;;;;;;6269993;28;20091;-81
2021/10/09 05:11:58;;;;;;;13.77;11.00;;;;;;;;;;6275632;28;20028;-82
2021/10/09 05:14:59;;;;;;;15.40;12.07;;;;;;;;;;6248498;28;20028;-81
2021/10/09 05:18:00;;;;;;;16.48;11.98;;;5.60;99.90;;;;;;6251907;28;20695;-81
2021/10/09 05:21:01;;;;;;;23.55;13.27;;;6.70;99.90;;;;;;6251268;28;20044;-81
2021/10/09 05:24:01;;;;;;;16.88;12.90;;;5.70;99.90;;;;;;6234562;28;20128;-81
2021/10/09 05:27:02;;;;;;;16.33;12.40;;;5.70;99.90;;;;;;6250665;28;20024;-81
2021/10/09 05:30:07;;;;;;;19.13;13.23;;;5.70;99.90;;;;;;6235509;28;20020;-81
2021/10/09 05:33:18;;;;;;;19.45;13.73;;;5.70;99.90;;;;;;6218843;28;20025;-81
2021/10/09 05:36:19;;;;;;;19.42;13.07;;;5.80;99.90;;;;;;6248692;28;20017;-81
2021/10/09 05:39:20;;;;;;;19.42;13.43;;;5.50;99.90;;;;;;6245081;28;20554;-81
2021/10/09 05:42:20;;;;;;;16.30;12.50;;;6.90;99.90;;;;;;6234089;28;20025;-82
2021/10/09 05:45:21;;;;;;;15.98;12.02;;;5.90;99.90;;;;;;6234573;28;20024;-81
2021/10/09 05:48:22;;;;;;;14.77;12.07;;;;;;;;;;6224865;28;20106;-82
2021/10/09 07:00:11;;;;;;;14.95;12.43;;;10.10;99.90;;;;;;6245603;28;20477;-85
2021/10/09 07:03:16;;;;;;;16.42;10.73;;;11.40;99.90;;;;;;6234727;28;20059;-84
2021/10/09 07:06:18;;;;;;;14.20;10.27;;;12.60;99.90;;;;;;6233170;28;20078;-82
2021/10/09 07:09:19;;;;;;;17.63;10.85;;;12.90;99.90;;;;;;6263601;28;20029;-85
2021/10/09 07:12:20;;;;;;;12.65;9.70;;;14.00;99.90;;;;;;6246721;28;20045;-82
2021/10/09 07:15:20;;;;;;;14.45;10.27;;;14.60;99.90;;;;;;6241820;28;20035;-84
2021/10/09 07:18:22;;;;;;;13.23;9.70;;;;;;;;;;6273319;28;20065;-85
2021/10/09 07:21:23;;;;;;;16.80;9.35;;;;;;;;;;6254674;28;20064;-86
2021/10/09 07:24:24;;;;;;;13.35;10.25;;;;;;;;;;6223940;28;20130;-84
2021/10/09 07:27:24;;;;;;;11.90;9.30;;;16.00;99.90;;;;;;6236017;28;20048;-83
2021/10/09 07:30:25;;;;;;;16.15;9.43;;;16.10;99.90;;;;;;6217635;28;20030;-86
2021/10/09 07:33:26;;;;;;;12.10;10.05;;;;;;;;;;6217001;28;20355;-84
2021/10/09 07:36:27;;;;;;;12.75;9.23;;;;;;;;;;6216307;28;20026;-83
2021/10/09 07:39:28;;;;;;;12.45;9.25;;;;;;;;;;6250428;28;20021;-86
2021/10/09 07:42:29;;;;;;;12.15;9.98;;;;;;;;;;6239276;28;20026;-83
2021/10/09 07:45:29;;;;;;;11.05;9.20;;;17.40;99.90;;;;;;6236213;28;20102;-82
2021/10/09 07:48:30;;;;;;;13.50;9.07;;;17.30;98.70;;;;;;6241293;28;20040;-84
2021/10/09 07:55:09;;;;;;;21.05;10.05;;;17.50;99.90;;;;;;6250598;28;20021;-81
2021/10/09 07:58:10;;;;;;;13.68;9.10;;;;;;;;;;6213857;28;20060;-83
2021/10/09 08:01:11;;;;;;;10.93;9.88;;;;;;;;;;6213796;28;20013;-83
2021/10/09 08:04:15;;;;;;;14.80;9.60;;;18.40;99.90;;;;;;6221986;28;20040;-83
2021/10/09 08:07:16;;;;;;;11.02;9.18;;;;;;;;;;6230585;28;20025;-82
2021/10/09 08:10:17;;;;;;;16.55;10.82;;;;;;;;;;6229106;28;20435;-82
2021/10/09 08:13:17;;;;;;;11.75;10.02;;;18.30;99.90;;;;;;6261923;28;20041;-82
2021/10/09 08:16:18;;;;;;;10.98;8.98;;;18.10;99.90;;;;;;6198030;28;20031;-83
2021/10/09 08:19:19;;;;;;;13.73;10.20;;;;;;;;;;6260060;28;20486;-80
2021/10/09 08:22:22;;;;;;;12.88;9.57;;;;;;;;;;6229470;28;20426;-80
2021/10/09 08:41:32;;;;;;;14.38;12.77;;;20.10;92.10;;;;;;6253536;28;20025;-83
2021/10/09 08:44:33;;;;;;;18.75;12.52;;;20.20;93.00;;;;;;6245166;28;20122;-81
2021/10/09 08:47:36;;;;;;;17.48;13.07;;;;;;;;;;6227417;28;20497;-86
2021/10/09 08:50:37;;;;;;;17.88;13.10;;;20.80;90.00;;;;;;6255528;28;20144;-82
2021/10/09 08:53:39;;;;;;;15.05;12.00;;;21.10;91.10;;;;;;6253300;28;20485;-79
2021/10/09 08:56:40;;;;;;;;;;;21.40;89.90;;;;;;6256920;28;20110;-79
2021/10/09 08:59:58;;;;;;;14.52;11.45;;;21.60;89.10;;;;;;6251834;28;20011;-80
2021/10/09 09:03:09;;;;;;;15.63;11.02;;;22.70;96.00;;;;;;6257517;28;20033;-79
2021/10/09 09:06:26;;;;;;;14.45;10.60;;;22.70;82.00;;;;;;6257464;28;20041;-83
2021/10/09 09:39:37;;;;;;;12.77;9.68;;;23.60;72.40;;;;;;6104650;29;20047;-84
2021/10/09 09:42:51;;;;;;;12.43;9.40;;;23.70;74.40;;;;;;6103854;29;20047;-84
2021/10/09 09:45:52;;;;;;;12.15;8.57;;;23.60;72.70;;;;;;6104142;29;20054;-83
2021/10/09 09:48:52;;;;;;;13.63;10.13;;;23.60;72.10;;;;;;6088432;29;20485;-83
2021/10/09 09:51:53;;;;;;;12.77;10.50;;;23.60;74.20;;;;;;6088150;29;20123;-83
2021/10/09 09:54:53;;;;;;;14.30;10.40;;;24.10;91.30;;;;;;6106403;29;20091;-84
2021/10/09 09:57:54;;;;;;;14.15;11.73;;;24.00;75.80;;;;;;6103662;29;20039;-83
2021/10/09 10:00:57;;;;;;;14.57;11.23;;;24.10;75.20;;;;;;6103610;29;20479;-82
2021/10/09 10:03:58;;;;;;;12.40;10.23;;;24.20;73.80;;;;;;6104015;29;20446;-83
2021/10/09 10:07:00;;;;;;;14.18;11.65;;;24.10;75.30;;;;;;6087682;29;20043;-84
2021/10/09 10:10:00;;;;;;;14.68;12.18;;;24.10;74.40;;;;;;6103901;29;20059;-84
2021/10/09 10:13:01;;;;;;;17.38;12.93;;;24.00;73.30;;;;;;6201874;28;20087;-83
2021/10/09 10:16:06;;;;;;;15.95;10.98;;;24.10;75.00;;;;;;6233858;28;20031;-83
2021/10/09 10:19:06;;;;;;;14.73;11.88;;;24.20;71.50;;;;;;6238440;28;20460;-84
2021/10/09 10:22:07;;;;;;;16.02;12.15;;;24.10;72.00;;;;;;6231313;28;20098;-86
2021/10/09 10:25:17;;;;;;;12.20;8.57;;;24.20;86.80;;;;;;6250087;28;20135;-84
2021/10/09 10:28:22;;;;;;;15.43;11.25;;;24.20;69.00;;;;;;6250519;28;20115;-83
2021/10/09 10:31:23;;;;;;;15.20;12.00;;;24.10;94.10;;;;;;6235866;28;20069;-83
2021/10/09 10:34:25;;;;;;;18.20;13.15;;;24.20;93.60;;;;;;6244247;28;20021;-83
2021/10/09 10:37:33;;;;;;;14.07;12.60;;;24.20;93.80;;;;;;6223963;28;20025;-83
2021/10/09 10:40:50;;;;;;;15.20;12.30;;;24.50;81.70;;;;;;6234377;28;20112;-83
2021/10/09 10:43:55;;;;;;;19.10;12.65;;;;;;;;;;6252455;28;20169;-84
2021/10/09 10:47:00;;;;;;;18.58;12.90;;;23.80;94.50;;;;;;6244736;28;20487;-84
2021/10/09 10:50:08;;;;;;;16.73;12.05;;;;;;;;;;6223662;28;20030;-83
2021/10/09 10:53:15;;;;;;;17.42;12.15;;;23.60;80.30;;;;;;6256156;28;20100;-84
2021/10/09 10:56:15;;;;;;;16.77;12.07;;;23.40;82.70;;;;;;6240422;28;20120;-84
2021/10/09 11:02:49;;;;;;;14.30;11.88;;;23.00;82.00;;;;;;6131192;29;20061;-87
2021/10/09 11:05:52;;;;;;;28.98;14.55;;;23.40;75.70;;;;;;6132351;28;20539;-82
2021/10/09 11:08:54;;;;;;;27.27;15.10;;;22.50;78.10;;;;;;6135877;28;20110;-87
2021/10/09 11:11:54;;;;;;;16.60;12.93;;;22.40;77.80;;;;;;6132219;28;20039;-86
2021/10/09 11:15:25;;;;;;;19.65;13.25;;;22.10;78.80;;;;;;6131671;29;20158;-86
2021/10/09 11:18:26;;;;;;;17.85;12.93;;;22.10;79.40;;;;;;6137097;29;20031;-85
2021/10/09 11:21:26;;;;;;;36.47;13.98;;;22.20;81.10;;;;;;6133833;28;20398;-88
2021/10/09 11:24:59;;;;;;;25.73;14.60;;;22.10;81.50;;;;;;6120392;28;20109;-84
2021/10/09 11:28:02;;;;;;;18.30;13.20;;;21.90;97.20;;;;;;6113073;29;20052;-82
2021/10/09 11:31:05;;;;;;;22.23;12.93;;;21.80;96.60;;;;;;6124144;29;20191;-82
2021/10/09 12:31:31;;;;;;;17.27;12.65;;;20.00;90.10;;;;;;6344545;27;20462;-90
2021/10/09 12:34:32;;;;;;;18.35;13.07;;;;;;;;;;6285098;28;20048;-81
2021/10/09 12:37:35;;;;;;;18.98;12.38;;;19.70;97.80;;;;;;6338571;28;20069;-81
2021/10/09 12:40:35;;;;;;;17.48;12.68;;;19.70;98.10;;;;;;6303096;28;20028;-82
2021/10/09 12:43:39;;;;;;;19.45;13.90;;;19.90;99.90;;;;;;6318190;28;20496;-82
2021/10/09 12:46:39;;;;;;;16.33;12.73;;;19.80;98.90;;;;;;6305810;28;20030;-82
2021/10/09 12:49:40;;;;;;;16.05;12.30;;;19.80;93.00;;;;;;6288060;28;20040;-82
2021/10/09 12:52:41;;;;;;;15.38;12.50;;;19.70;93.00;;;;;;6304830;28;20027;-81
2021/10/09 12:55:42;;;;;;;17.65;12.38;;;19.70;93.40;;;;;;6320723;28;20100;-83
2021/10/09 12:58:42;;;;;;;14.88;13.00;;;19.50;99.90;;;;;;6299009;28;20420;-88
2021/10/09 13:01:44;;;;;;;15.73;12.98;;;;;;;;;;6279717;28;20046;-88
2021/10/09 13:04:44;;;;;;;15.68;12.88;;;19.50;91.70;;;;;;6304558;28;20380;-88
2021/10/09 13:07:46;;;;;;;18.35;11.68;;;;;;;;;;6304947;28;20023;-91
2021/10/09 13:10:49;;;;;;;15.27;12.10;;;;;;;;;;6305064;28;20040;-88
2021/10/09 13:13:50;;;;;;;17.95;12.68;;;19.40;99.90;;;;;;6304583;28;20478;-88
2021/10/09 13:16:50;;;;;;;17.75;12.52;;;19.50;99.90;;;;;;6287340;28;20069;-87
2021/10/09 13:19:51;;;;;;;15.48;12.00;;;19.50;94.20;;;;;;6287335;28;20027;-88
2021/10/09 13:22:52;;;;;;;15.73;11.90;;;;;;;;;;6287144;28;20031;-88
2021/10/09 13:25:52;;;;;;;18.92;12.73;;;19.40;92.30;;;;;;6303292;28;20023;-89
2021/10/09 13:28:53;;;;;;;16.45;12.73;;;19.40;93.90;;;;;;6303715;28;20055;-88
2021/10/09 13:31:54;;;;;;;16.50;12.68;;;19.40;93.20;;;;;;6287424;28;20076;-89
2021/10/09 13:34:55;;;;;;;16.77;11.93;;;;;;;;;;6286824;28;20044;-87
2021/10/09 13:38:01;;;;;;;15.93;11.52;;;19.30;92.10;;;;;;6320878;28;20020;-88
2021/10/09 13:41:02;;;;;;;16.65;12.20;;;19.20;93.60;;;;;;6280742;28;20116;-90
2021/10/09 13:44:02;;;;;;;14.70;11.13;;;19.10;92.90;;;;;;6270572;28;20028;-88
2021/10/09 13:47:04;;;;;;;13.88;12.20;;;19.00;93.20;;;;;;6270400;28;20028;-88
2021/10/09 13:50:05;;;;;;;13.98;11.23;;;19.30;93.70;;;;;;6270818;28;20063;-89
2021/10/09 13:53:05;;;;;;;13.20;11.25;;;17.70;93.00;;;;;;6270217;28;20119;-87
2021/10/09 13:56:06;;;;;;;15.45;10.90;;;19.60;93.70;;;;;;6287149;28;20024;-88
2021/10/09 13:59:08;;;;;;;15.57;11.60;;;18.80;93.70;;;;;;6288441;28;20028;-87
2021/10/09 14:02:09;;;;;;;17.73;12.23;;;18.80;94.80;;;;;;6269791;28;20535;-87
2021/10/09 14:05:09;;;;;;;16.25;11.90;;;19.00;95.00;;;;;;6269876;28;20024;-88
2021/10/09 14:08:10;;;;;;;19.00;12.45;;;19.60;94.90;;;;;;6286157;28;20020;-87
2021/10/09 14:11:10;;;;;;;13.57;11.65;;;18.90;94.50;;;;;;6286829;28;20028;-87
2021/10/09 14:14:12;;;;;;;19.00;12.30;;;18.90;94.00;;;;;;6269686;28;20343;-88
2021/10/09 14:17:12;;;;;;;12.70;11.27;;;18.90;94.40;;;;;;6269993;28;20035;-90
2021/10/09 14:20:14;;;;;;;16.75;10.88;;;;;;;;;;6269788;28;20024;-87
2021/10/09 14:23:15;;;;;;;14.60;11.02;;;;;;;;;;6286299;28;20054;-87
2021/10/09 14:26:15;;;;;;;15.45;11.73;;;18.70;93.90;;;;;;6286163;28;20060;-88
2021/10/09 14:29:16;;;;;;;16.33;12.98;;;18.60;94.70;;;;;;6270343;28;20062;-88
2021/10/09 14:32:17;;;;;;;15.20;11.73;;;;;;;;;;6286082;28;20028;-88
2021/10/09 14:35:17;;;;;;;18.88;12.00;;;18.50;94.90;;;;;;6288198;28;20139;-88
2021/10/09 14:38:18;;;;;;;13.43;11.18;;;;;;;;;;6269252;28;20652;-87
2021/10/09 14:41:19;;;;;;;20.60;11.50;;;;;;;;;;6285351;28;20051;-87
2021/10/09 14:44:20;;;;;;;12.65;11.35;;;17.90;95.10;;;;;;6286283;28;20023;-87
2021/10/09 14:54:47;;;;;;;17.67;12.02;;;18.00;99.90;;;;;;6225573;28;20574;-86
2021/10/09 15:16:20;;;;;;;18.52;13.02;;;17.80;96.60;;;;;;6232190;28;20037;-86
2021/10/09 15:20:48;;;;;;;18.77;13.15;;;17.80;98.80;;;;;;6261963;28;20043;-84
2021/10/09 15:23:49;;;;;;;18.38;11.50;;;17.60;98.80;;;;;;6301030;28;20039;-80
2021/10/09 15:26:50;;;;;;;23.70;11.70;;;17.70;99.90;;;;;;6267559;28;20517;-84
2021/10/09 15:29:50;;;;;;;15.40;10.93;;;17.50;99.90;;;;;;6267400;28;20051;-86
2021/10/09 15:32:51;;;;;;;13.32;10.32;;;17.60;99.90;;;;;;6266440;28;20028;-85
2021/10/09 15:35:51;;;;;;;18.35;11.65;;;17.30;99.90;;;;;;6283734;28;20036;-85
2021/10/09 15:38:52;;;;;;;14.05;11.25;;;;;;;;;;6300849;28;20460;-85
2021/10/09 15:41:53;;;;;;;13.63;11.43;;;17.10;99.90;;;;;;6318548;28;20141;-85
2021/10/09 15:44:54;;;;;;;16.15;12.15;;;17.30;99.90;;;;;;6283705;28;20533;-85
2021/10/09 15:47:54;;;;;;;15.20;11.95;;;17.10;99.90;;;;;;6283874;28;20023;-84
2021/10/09 15:50:56;;;;;;;16.80;10.63;;;;;;;;;;6267163;28;20082;-85
2021/10/09 15:53:57;;;;;;;12.40;10.75;;;;;;;;;;6300370;28;20027;-85
2021/10/09 15:56:58;;;;;;;13.32;10.93;;;;;;;;;;6283754;28;20060;-86
2021/10/09 15:59:59;;;;;;;14.50;11.63;;;;;;;;;;6316975;28;20113;-86
2021/10/09 16:03:00;;;;;;;12.70;10.07;;;;;;;;;;6283657;28;20169;-85
2021/10/09 16:06:01;;;;;;;11.85;10.65;;;;;;;;;;6283851;28;20063;-84
2021/10/09 16:09:01;;;;;;;11.95;9.95;;;16.30;99.90;;;;;;6300119;28;20044;-86
2021/10/09 16:12:02;;;;;;;15.02;10.50;;;16.40;99.90;;;;;;6282719;28;20023;-84
2021/10/09 16:15:03;;;;;;;12.85;11.20;;;16.30;99.90;;;;;;6283574;28;20448;-85
2021/10/09 16:18:04;;;;;;;12.43;9.50;;;16.20;99.90;;;;;;6266824;28;20053;-84
2021/10/09 16:21:04;;;;;;;15.63;11.13;;;16.10;99.90;;;;;;6266830;28;20024;-83
2021/10/09 16:24:05;;;;;;;15.43;10.35;;;16.70;99.90;;;;;;6283117;28;20048;-85
2021/10/09 16:27:06;;;;;;;12.32;9.82;;;15.90;99.90;;;;;;6267000;28;20024;-85
2021/10/09 16:30:07;;;;;;;19.63;14.75;;;15.60;99.90;;;;;;6282962;28;20492;-84
2021/10/09 16:33:07;;;;;;;12.05;9.48;;;15.40;99.90;;;;;;6299213;28;20052;-85
2021/10/09 16:36:08;;;;;;;15.63;11.40;;;15.20;99.90;;;;;;6282773;28;20493;-86
2021/10/09 16:39:09;;;;;;;11.82;8.50;;;15.10;99.90;;;;;;6266529;28;20038;-85
2021/10/09 16:42:09;;;;;;;10.02;7.75;;;14.80;99.80;;;;;;6280186;28;20618;-84
2021/10/09 16:45:10;;;;;;;8.52;6.70;;;14.70;99.60;;;;;;6261290;28;20401;-87
2021/10/09 16:48:11;;;;;;;12.10;8.00;;;;;;;;;;6266264;28;20098;-85
2021/10/09 16:51:13;;;;;;;9.77;6.50;;;14.40;99.90;;;;;;6294736;28;20085;-85
2021/10/09 16:54:14;;;;;;;7.77;6.57;;;;;;;;;;6267110;28;20058;-86
2021/10/09 16:57:15;;;;;;;8.17;6.20;;;14.20;97.80;;;;;;6281956;28;20270;-84
2021/10/09 17:00:15;;;;;;;9.80;7.03;;;14.00;99.90;;;;;;6283009;28;20392;-83
2021/10/09 17:03:17;;;;;;;10.30;6.82;;;;;;;;;;6265807;28;20028;-84
2021/10/09 17:06:17;;;;;;;12.90;7.15;;;13.90;99.20;;;;;;6299533;28;20028;-86
2021/10/09 17:09:18;;;;;;;10.25;7.60;;;13.60;99.90;;;;;;6265843;28;20042;-84
2021/10/09 17:12:19;;;;;;;16.88;8.57;;;13.40;99.90;;;;;;6282965;28;20025;-83
2021/10/09 17:15:20;;;;;;;9.73;7.67;;;13.40;99.90;;;;;;6282055;28;20378;-84
2021/10/09 17:18:21;;;;;;;10.55;6.95;;;13.10;99.90;;;;;;6287154;28;20028;-84
2021/10/09 17:21:21;;;;;;;11.23;7.35;;;12.90;99.90;;;;;;6270350;28;20024;-84
2021/10/09 17:24:22;;;;;;;9.30;6.97;;;12.70;99.90;;;;;;6287190;28;20024;-83
2021/10/09 17:27:23;;;;;;;11.20;7.22;;;;;;;;;;6270369;28;20043;-84
2021/10/09 17:30:24;;;;;;;9.38;7.47;;;12.40;99.90;;;;;;6303151;28;20047;-84
2021/10/09 17:33:25;;;;;;;8.75;7.38;;;;;;;;;;6269762;28;20474;-86
2021/10/09 17:36:26;;;;;;;10.05;7.45;;;12.20;99.90;;;;;;6286600;28;20032;-83
2021/10/09 17:39:27;;;;;;;10.15;7.32;;;12.00;99.90;;;;;;6270003;28;20032;-84
2021/10/09 17:42:27;;;;;;;11.38;8.25;;;12.00;99.90;;;;;;6287656;28;20062;-81
2021/10/09 17:45:28;;;;;;;10.30;7.97;;;11.90;99.90;;;;;;6271634;28;20024;-85
2021/10/09 17:48:29;;;;;;;10.88;8.77;;;11.60;99.90;;;;;;6287330;28;20054;-85
2021/10/09 17:51:36;;;;;;;12.10;9.05;;;11.70;99.90;;;;;;6271351;28;20126;-86
2021/10/09 17:54:37;;;;;;;11.32;8.32;;;11.70;99.90;;;;;;6289610;28;20028;-88
2021/10/09 17:57:38;;;;;;;12.68;9.20;;;11.40;99.90;;;;;;6270665;28;20497;-85
2021/10/09 18:00:39;;;;;;;12.05;8.82;;;11.40;99.90;;;;;;6286934;28;20031;-84
2021/10/09 18:03:40;;;;;;;11.82;8.25;;;11.30;99.90;;;;;;6270457;28;20028;-84
2021/10/09 18:06:41;;;;;;;13.75;9.55;;;;;;;;;;6269673;28;21169;-85
2021/10/09 18:09:41;;;;;;;12.75;9.15;;;11.10;99.90;;;;;;6286639;28;20610;-85
2021/10/09 18:12:45;;;;;;;10.18;8.68;;;11.00;99.90;;;;;;6287305;28;20012;-85
2021/10/09 18:15:46;;;;;;;11.77;9.60;;;11.20;99.90;;;;;;6269519;28;20020;-82
2021/10/09 18:18:47;;;;;;;11.68;9.30;;;10.30;99.90;;;;;;6280978;28;20479;-85
2021/10/09 18:21:48;;;;;;;13.13;9.80;;;;;;;;;;6301234;28;20024;-84
2021/10/09 18:24:49;;;;;;;11.75;9.75;;;10.60;99.90;;;;;;6285830;28;20020;-85
2021/10/09 18:27:49;;;;;;;11.98;8.25;;;10.40;99.90;;;;;;6268781;28;20020;-86
2021/10/09 18:30:50;;;;;;;12.65;9.43;;;10.40;99.90;;;;;;6268677;28;20052;-85
2021/10/09 18:33:51;;;;;;;14.30;9.98;;;10.40;99.90;;;;;;6286031;28;20462;-84
2021/10/09 18:36:51;;;;;;;13.63;10.13;;;10.30;99.90;;;;;;6283834;28;20027;-86
2021/10/09 18:39:52;;;;;;;14.65;10.88;;;10.40;99.90;;;;;;6284159;28;20354;-86
2021/10/09 18:42:52;;;;;;;12.93;10.18;;;10.10;99.90;;;;;;6285262;28;20032;-84
2021/10/09 18:45:58;;;;;;;15.05;10.65;;;10.00;99.90;;;;;;6269538;28;20351;-87
2021/10/09 18:48:59;;;;;;;13.55;9.07;;;9.90;99.90;;;;;;6269388;28;20038;-85
2021/10/09 18:52:02;;;;;;;10.95;8.65;;;;;;;;;;6265113;28;20040;-85
2021/10/09 18:55:07;;;;;;;17.73;10.07;;;;;;;;;;6285170;28;20053;-87
2021/10/09 18:58:08;;;;;;;12.73;9.82;;;;;;;;;;6285670;28;20115;-86
2021/10/09 19:01:09;;;;;;;13.50;9.98;;;;;;;;;;6285103;28;20032;-86
2021/10/09 19:04:09;;;;;;;11.15;9.05;;;9.30;99.90;;;;;;6302253;28;20027;-87
2021/10/09 19:07:10;;;;;;;13.77;9.10;;;9.30;99.90;;;;;;6284282;28;20572;-85
2021/10/09 19:10:11;;;;;;;11.70;9.18;;;9.30;99.90;;;;;;6268893;28;20110;-85
2021/10/09 19:13:12;;;;;;;11.82;8.38;;;;;;;;;;6269306;28;20177;-85
2021/10/09 19:16:13;;;;;;;12.55;9.30;;;;;;;;;;6283871;28;20432;-85
2021/10/09 19:19:14;;;;;;;11.85;8.63;;;;;;;;;;6302172;28;20108;-85
2021/10/09 19:22:16;;;;;;;16.27;9.27;;;8.80;99.90;;;;;;6301473;28;20134;-84
2021/10/09 19:25:17;;;;;;;11.93;9.05;;;;;;;;;;6283484;28;20047;-86
2021/10/09 19:28:18;;;;;;;11.45;9.15;;;;;;;;;;6283773;28;20020;-85
2021/10/09 19:31:18;;;;;;;14.70;9.40;;;8.70;99.90;;;;;;6300784;28;20031;-85
2021/10/09 19:34:23;;;;;;;16.67;9.93;;;;;;;;;;6266724;28;20043;-85
2021/10/09 19:37:25;;;;;;;12.57;10.18;;;8.90;99.90;;;;;;6301697;28;20469;-86
2021/10/09 19:40:25;;;;;;;13.82;10.10;;;8.60;99.90;;;;;;6284398;28;20414;-85
2021/10/09 19:43:26;;;;;;;14.40;9.40;;;;;;;;;;6267598;28;20020;-85